Terminal Aerodrome Forecast
Issued by NWS Wilmington, NC

Home | Current Version | Previous Version | Text Only | Print | Product List | Glossary On
Versions: 1 2 3 4 5 6 7 8 9 10 11 12 13 14
000
FTUS42 KILM 310529
TAFMYR
TAF
KMYR 310529Z 3106/0106 VRB03KT P6SM SCT060 BKN150
     FM311100 23004KT P6SM VCSH SCT040 BKN150
      TEMPO 3114/3118 4SM SHRA BKN035
     FM311800 18007KT P6SM SCT040 BKN080
      TEMPO 3118/3122 5SM -TSRA BKN040CB
     FM312200 19010KT P6SM BKN250 PROB30 3122/0102 5SM -TSRA
      BKN050CB
     FM010200 21005KT P6SM FEW250 PROB30 0102/0106 5SM -TSRA
      BKN050CB
      AMD LTD TO CLD VIS AND WIND TIL 311100=

USA.gov is the U.S. government's official web portal to all federal, state and local government web resources and services.